CBJ1227 ZPPP-RKPC
Flight info
| Callsign | CBJ1227 |
|---|---|
| Flight time | N/A |
| Altitude | 33100 |
| Route | NODIB W137 LPS A581 LIN/K0845S1070 A581 WHA R343 PK A593 AKARA/K0841F350 A593 LAMEN/N0454F350 DCT SADLI Y590 ELGEP Y722 SOSDO |
| Aircraft | A321/M-SDE3FGHIRWY/LB1 |
Departure
| Time | 2026-04-29 06:23 |
|---|---|
| Airport | Kunming Changshui International Airport (ZPPP) |
Arrival
| Time | N/A |
|---|---|
| Airport | Jeju International Airport (RKPC) |
| Time | Latitude | Longitude | Altitude | Speed | Heading |
|---|---|---|---|---|---|
| 2026-04-29 06:10 | 25.09645 | 102.93090 | 6928 ft | 0 kts | 39° |
| 2026-04-29 06:12 | 25.09631 | 102.93078 | 6932 ft | 3 kts | 40° |
| 2026-04-29 06:13 | 25.09610 | 102.93059 | 6926 ft | 3 kts | 38° |
| 2026-04-29 06:13 | 25.09591 | 102.93037 | 6930 ft | 3 kts | 85° |
| 2026-04-29 06:13 | 25.09592 | 102.93022 | 6934 ft | 3 kts | 115° |
| 2026-04-29 06:13 | 25.09597 | 102.93011 | 6931 ft | 0 kts | 128° |
| 2026-04-29 06:16 | 25.09595 | 102.93014 | 6931 ft | 2 kts | 128° |
| 2026-04-29 06:16 | 25.09582 | 102.93032 | 6931 ft | 5 kts | 128° |
| 2026-04-29 06:16 | 25.09556 | 102.93068 | 6927 ft | 7 kts | 128° |
| 2026-04-29 06:16 | 25.09520 | 102.93119 | 6924 ft | 10 kts | 128° |
| 2026-04-29 06:17 | 25.09471 | 102.93185 | 6932 ft | 12 kts | 129° |
| 2026-04-29 06:17 | 25.09419 | 102.93218 | 6924 ft | 9 kts | 192° |
| 2026-04-29 06:17 | 25.09360 | 102.93172 | 6931 ft | 11 kts | 218° |
| 2026-04-29 06:17 | 25.09292 | 102.93112 | 6928 ft | 14 kts | 218° |
| 2026-04-29 06:18 | 25.09212 | 102.93043 | 6921 ft | 16 kts | 218° |
| 2026-04-29 06:18 | 25.09157 | 102.92995 | 6921 ft | 0 kts | 218° |
| 2026-04-29 06:19 | 25.09156 | 102.92994 | 6930 ft | 1 kts | 218° |
| 2026-04-29 06:20 | 25.09132 | 102.92974 | 6921 ft | 7 kts | 218° |
| 2026-04-29 06:20 | 25.09087 | 102.92941 | 6921 ft | 6 kts | 188° |
| 2026-04-29 06:20 | 25.09053 | 102.92976 | 6923 ft | 8 kts | 124° |
| 2026-04-29 06:20 | 25.09014 | 102.93035 | 6922 ft | 11 kts | 126° |
| 2026-04-29 06:21 | 25.09001 | 102.93096 | 6929 ft | 9 kts | 50° |
| 2026-04-29 06:21 | 25.09028 | 102.93120 | 6924 ft | 0 kts | 37° |
| 2026-04-29 06:21 | 25.09037 | 102.93128 | 6929 ft | 6 kts | 37° |
| 2026-04-29 06:21 | 25.09227 | 102.93290 | 6921 ft | 67 kts | 38° |
| 2026-04-29 06:22 | 25.09749 | 102.93748 | 6921 ft | 123 kts | 38° |
| 2026-04-29 06:22 | 25.10559 | 102.94453 | 6926 ft | 171 kts | 38° |
| 2026-04-29 06:22 | 25.11588 | 102.95346 | 6936 ft | 208 kts | 38° |
| 2026-04-29 06:22 | 25.12763 | 102.96368 | 7351 ft | 217 kts | 38° |
| 2026-04-29 06:23 | 25.13944 | 102.97392 | 8122 ft | 214 kts | 38° |
| 2026-04-29 06:23 | 25.15122 | 102.98415 | 8647 ft | 220 kts | 38° |
| 2026-04-29 06:23 | 25.16369 | 102.99509 | 8829 ft | 238 kts | 39° |
| 2026-04-29 06:23 | 25.17717 | 103.00688 | 8970 ft | 258 kts | 38° |
| 2026-04-29 06:24 | 25.19166 | 103.01953 | 9394 ft | 268 kts | 38° |
| 2026-04-29 06:24 | 25.20642 | 103.03241 | 10026 ft | 272 kts | 38° |
| 2026-04-29 06:24 | 25.22134 | 103.04542 | 10642 ft | 274 kts | 38° |
| 2026-04-29 06:24 | 25.23623 | 103.05838 | 11230 ft | 277 kts | 38° |
| 2026-04-29 06:25 | 25.25141 | 103.07163 | 11811 ft | 279 kts | 38° |
| 2026-04-29 06:25 | 25.26675 | 103.08502 | 12403 ft | 282 kts | 38° |
| 2026-04-29 06:25 | 25.28222 | 103.09855 | 12978 ft | 284 kts | 38° |
| 2026-04-29 06:25 | 25.29781 | 103.11218 | 13528 ft | 286 kts | 38° |
| 2026-04-29 06:26 | 25.31352 | 103.12593 | 14064 ft | 289 kts | 38° |
| 2026-04-29 06:26 | 25.32934 | 103.13975 | 14616 ft | 291 kts | 38° |
| 2026-04-29 06:26 | 25.34531 | 103.15373 | 15162 ft | 294 kts | 38° |
| 2026-04-29 06:26 | 25.36142 | 103.16783 | 15696 ft | 296 kts | 38° |
| 2026-04-29 06:27 | 25.37770 | 103.18207 | 16211 ft | 299 kts | 38° |
| 2026-04-29 06:27 | 25.39389 | 103.19622 | 16693 ft | 301 kts | 38° |
| 2026-04-29 06:27 | 25.41037 | 103.21067 | 17169 ft | 303 kts | 38° |
| 2026-04-29 06:27 | 25.42699 | 103.22521 | 17653 ft | 306 kts | 38° |
| 2026-04-29 06:28 | 25.44374 | 103.23991 | 18122 ft | 308 kts | 40° |
| 2026-04-29 06:28 | 25.45837 | 103.25728 | 18566 ft | 310 kts | 56° |
| 2026-04-29 06:28 | 25.46831 | 103.27866 | 18811 ft | 319 kts | 72° |
| 2026-04-29 06:28 | 25.47347 | 103.30277 | 18951 ft | 332 kts | 78° |
| 2026-04-29 06:29 | 25.47825 | 103.32833 | 19075 ft | 345 kts | 78° |
| 2026-04-29 06:29 | 25.48327 | 103.35482 | 19210 ft | 358 kts | 78° |
| 2026-04-29 06:29 | 25.48857 | 103.38234 | 19336 ft | 371 kts | 78° |
| 2026-04-29 06:29 | 25.49411 | 103.41081 | 19461 ft | 384 kts | 78° |
| 2026-04-29 06:30 | 25.49984 | 103.44025 | 19587 ft | 397 kts | 78° |
| 2026-04-29 06:30 | 25.51179 | 103.50182 | 19858 ft | 420 kts | 78° |
| 2026-04-29 06:30 | 25.51795 | 103.53368 | 20179 ft | 425 kts | 78° |
| 2026-04-29 06:31 | 25.52417 | 103.56583 | 20569 ft | 428 kts | 78° |
| 2026-04-29 06:31 | 25.53236 | 103.59718 | 20945 ft | 431 kts | 69° |
| 2026-04-29 06:31 | 25.54512 | 103.62740 | 21324 ft | 433 kts | 60° |
| 2026-04-29 06:31 | 25.56125 | 103.65573 | 21691 ft | 436 kts | 57° |
| 2026-04-29 06:32 | 25.57776 | 103.68404 | 22067 ft | 438 kts | 57° |
| 2026-04-29 06:32 | 25.59414 | 103.71218 | 22432 ft | 440 kts | 57° |
| 2026-04-29 06:32 | 25.61083 | 103.74092 | 22784 ft | 443 kts | 57° |
| 2026-04-29 06:32 | 25.62755 | 103.76971 | 23132 ft | 445 kts | 57° |
| 2026-04-29 06:33 | 25.64434 | 103.79864 | 23469 ft | 447 kts | 57° |
| 2026-04-29 06:33 | 25.66127 | 103.82783 | 23798 ft | 450 kts | 57° |
| 2026-04-29 06:33 | 25.67827 | 103.85711 | 24132 ft | 452 kts | 57° |
| 2026-04-29 06:33 | 25.69532 | 103.88650 | 24461 ft | 454 kts | 57° |
| 2026-04-29 06:34 | 25.71221 | 103.91565 | 24776 ft | 456 kts | 57° |
| 2026-04-29 06:34 | 25.72942 | 103.94542 | 25076 ft | 458 kts | 57° |
| 2026-04-29 06:34 | 25.74667 | 103.97533 | 25359 ft | 460 kts | 57° |
| 2026-04-29 06:34 | 25.76402 | 104.00534 | 25651 ft | 462 kts | 57° |
| 2026-04-29 06:35 | 25.78141 | 104.03544 | 25936 ft | 464 kts | 57° |
| 2026-04-29 06:35 | 25.79872 | 104.06551 | 26221 ft | 466 kts | 57° |
| 2026-04-29 06:35 | 25.81630 | 104.09583 | 26497 ft | 468 kts | 57° |
| 2026-04-29 06:35 | 25.83410 | 104.12617 | 26772 ft | 470 kts | 57° |
| 2026-04-29 06:36 | 25.85209 | 104.15659 | 27050 ft | 472 kts | 57° |
| 2026-04-29 06:36 | 25.87024 | 104.18725 | 27326 ft | 474 kts | 57° |
| 2026-04-29 06:36 | 25.88834 | 104.21791 | 27683 ft | 473 kts | 57° |
| 2026-04-29 06:36 | 25.90635 | 104.24854 | 28073 ft | 472 kts | 57° |
| 2026-04-29 06:37 | 25.92430 | 104.27917 | 28450 ft | 471 kts | 57° |
| 2026-04-29 06:37 | 25.94194 | 104.30936 | 28800 ft | 471 kts | 57° |
| 2026-04-29 06:37 | 25.95977 | 104.33986 | 29148 ft | 470 kts | 57° |
| 2026-04-29 06:37 | 25.97759 | 104.37038 | 29498 ft | 469 kts | 57° |
| 2026-04-29 06:38 | 25.99536 | 104.40083 | 29825 ft | 469 kts | 57° |
| 2026-04-29 06:38 | 26.01312 | 104.43082 | 30152 ft | 468 kts | 54° |
| 2026-04-29 06:38 | 26.03376 | 104.45883 | 30473 ft | 467 kts | 46° |
| 2026-04-29 06:38 | 26.05764 | 104.48341 | 30778 ft | 467 kts | 39° |
| 2026-04-29 06:39 | 26.08270 | 104.50649 | 31084 ft | 466 kts | 39° |
| 2026-04-29 06:39 | 26.10771 | 104.52961 | 31389 ft | 466 kts | 40° |
| 2026-04-29 06:39 | 26.13260 | 104.55270 | 31693 ft | 465 kts | 40° |
| 2026-04-29 06:39 | 26.15743 | 104.57578 | 31978 ft | 464 kts | 40° |
| 2026-04-29 06:40 | 26.18204 | 104.59870 | 32275 ft | 464 kts | 40° |
| 2026-04-29 06:40 | 26.20682 | 104.62178 | 32557 ft | 463 kts | 40° |
| 2026-04-29 06:40 | 26.23157 | 104.64483 | 32835 ft | 463 kts | 40° |
| 2026-04-29 06:40 | 26.25631 | 104.66789 | 33052 ft | 463 kts | 40° |
| 2026-04-29 06:41 | 26.28102 | 104.69094 | 33108 ft | 463 kts | 40° |
| 2026-04-29 06:41 | 26.33026 | 104.73690 | 33110 ft | 463 kts | 40° |
| 2026-04-29 06:42 | 26.37978 | 104.78314 | 33109 ft | 463 kts | 40° |
| 2026-04-29 06:42 | 26.42923 | 104.82927 | 33108 ft | 463 kts | 40° |
| 2026-04-29 06:43 | 26.47844 | 104.87520 | 33108 ft | 463 kts | 40° |
| 2026-04-29 06:43 | 26.52791 | 104.92149 | 33111 ft | 463 kts | 40° |
| 2026-04-29 06:44 | 26.57710 | 104.96769 | 33114 ft | 464 kts | 40° |
| 2026-04-29 06:44 | 26.62554 | 105.01540 | 33116 ft | 463 kts | 47° |
| 2026-04-29 06:45 | 26.66144 | 105.07488 | 33115 ft | 463 kts | 66° |
| 2026-04-29 06:45 | 26.68779 | 105.14072 | 33115 ft | 463 kts | 66° |
| 2026-04-29 06:46 | 26.71412 | 105.20601 | 33115 ft | 463 kts | 66° |
| 2026-04-29 06:46 | 26.74059 | 105.27178 | 33116 ft | 463 kts | 66° |
| 2026-04-29 06:47 | 26.76701 | 105.33773 | 33118 ft | 464 kts | 66° |
| 2026-04-29 06:47 | 26.79338 | 105.40357 | 33119 ft | 463 kts | 66° |
| 2026-04-29 06:48 | 26.81975 | 105.46955 | 33120 ft | 463 kts | 66° |
| 2026-04-29 06:48 | 26.84592 | 105.53516 | 33121 ft | 464 kts | 66° |
| 2026-04-29 06:49 | 26.87215 | 105.60123 | 33122 ft | 464 kts | 66° |
| 2026-04-29 06:49 | 26.89823 | 105.66701 | 33122 ft | 464 kts | 66° |
| 2026-04-29 06:50 | 26.92446 | 105.73303 | 33122 ft | 463 kts | 66° |
| 2026-04-29 06:50 | 26.94628 | 105.78806 | 33123 ft | 464 kts | 66° |
| 2026-04-29 06:51 | 26.97690 | 105.86549 | 33122 ft | 463 kts | 66° |
| 2026-04-29 06:51 | 26.99857 | 105.92043 | 33122 ft | 463 kts | 66° |
| 2026-04-29 06:52 | 27.02449 | 105.98621 | 33122 ft | 463 kts | 66° |
| 2026-04-29 06:52 | 27.05087 | 106.05229 | 33122 ft | 463 kts | 64° |
| 2026-04-29 06:53 | 27.08011 | 106.11701 | 33122 ft | 463 kts | 62° |
| 2026-04-29 06:53 | 27.11052 | 106.18090 | 33122 ft | 463 kts | 62° |
| 2026-04-29 06:54 | 27.14020 | 106.24479 | 33122 ft | 463 kts | 63° |
| 2026-04-29 06:54 | 27.16945 | 106.30941 | 33122 ft | 463 kts | 63° |
| 2026-04-29 06:55 | 27.19854 | 106.37381 | 33121 ft | 463 kts | 63° |
| 2026-04-29 06:55 | 27.22789 | 106.43845 | 33121 ft | 463 kts | 63° |
| 2026-04-29 06:56 | 27.25729 | 106.50307 | 33121 ft | 463 kts | 63° |
| 2026-04-29 06:56 | 27.28645 | 106.56726 | 33121 ft | 463 kts | 63° |
| 2026-04-29 06:57 | 27.31571 | 106.63193 | 33121 ft | 463 kts | 63° |
| 2026-04-29 06:57 | 27.34493 | 106.69667 | 33121 ft | 463 kts | 63° |
| 2026-04-29 06:58 | 27.37398 | 106.76113 | 33122 ft | 463 kts | 63° |
| 2026-04-29 06:58 | 27.40302 | 106.82587 | 33122 ft | 463 kts | 63° |
| 2026-04-29 06:59 | 27.43202 | 106.89083 | 33121 ft | 463 kts | 63° |
| 2026-04-29 06:59 | 27.46078 | 106.95534 | 33121 ft | 463 kts | 63° |
| 2026-04-29 07:00 | 27.48981 | 107.02026 | 33122 ft | 463 kts | 63° |
| 2026-04-29 07:00 | 27.51912 | 107.08492 | 33121 ft | 463 kts | 63° |
| 2026-04-29 07:01 | 27.54847 | 107.14960 | 33122 ft | 463 kts | 63° |
| 2026-04-29 07:01 | 27.57771 | 107.21433 | 33121 ft | 463 kts | 63° |
| 2026-04-29 07:02 | 27.60695 | 107.27919 | 33121 ft | 463 kts | 63° |